sensor_id;sensor_type;location;lat;lon;timestamp;pressure;altitude;pressure_sealevel;temperature;humidity
51321;BME280;38732;49.556;6.286;2023-02-22T00:01:35;99551.94;;;4.76;75.95
51321;BME280;38732;49.556;6.286;2023-02-22T00:04:05;99548.50;;;4.74;75.90
51321;BME280;38732;49.556;6.286;2023-02-22T00:06:33;99545.88;;;4.73;75.95
51321;BME280;38732;49.556;6.286;2023-02-22T00:09:02;99540.81;;;4.74;76.73
51321;BME280;38732;49.556;6.286;2023-02-22T00:11:30;99535.69;;;4.74;76.89
51321;BME280;38732;49.556;6.286;2023-02-22T00:13:58;99537.41;;;4.75;75.76
51321;BME280;38732;49.556;6.286;2023-02-22T00:16:26;99540.69;;;4.70;75.82
51321;BME280;38732;49.556;6.286;2023-02-22T00:18:55;99531.22;;;4.66;77.29
51321;BME280;38732;49.556;6.286;2023-02-22T00:21:23;99538.88;;;4.66;77.86
51321;BME280;38732;49.556;6.286;2023-02-22T00:23:51;99537.16;;;4.65;78.45
51321;BME280;38732;49.556;6.286;2023-02-22T00:26:21;99528.66;;;4.66;78.22
51321;BME280;38732;49.556;6.286;2023-02-22T00:28:51;99536.38;;;4.67;77.53
51321;BME280;38732;49.556;6.286;2023-02-22T00:31:20;99532.84;;;4.64;75.84
51321;BME280;38732;49.556;6.286;2023-02-22T00:33:48;99542.88;;;4.54;76.45
51321;BME280;38732;49.556;6.286;2023-02-22T00:36:16;99534.31;;;4.52;75.67
51321;BME280;38732;49.556;6.286;2023-02-22T00:38:44;99528.09;;;4.43;76.06
51321;BME280;38732;49.556;6.286;2023-02-22T00:41:13;99531.75;;;4.52;77.67
51321;BME280;38732;49.556;6.286;2023-02-22T00:43:41;99529.91;;;4.48;76.93
51321;BME280;38732;49.556;6.286;2023-02-22T00:46:09;99536.75;;;4.48;75.73
51321;BME280;38732;49.556;6.286;2023-02-22T00:48:37;99538.25;;;4.41;74.08
51321;BME280;38732;49.556;6.286;2023-02-22T00:51:05;99537.19;;;4.33;76.09
51321;BME280;38732;49.556;6.286;2023-02-22T00:53:34;99538.84;;;4.31;76.19
51321;BME280;38732;49.556;6.286;2023-02-22T00:56:02;99539.50;;;4.24;77.33
51321;BME280;38732;49.556;6.286;2023-02-22T00:58:30;99532.72;;;4.24;78.16
51321;BME280;38732;49.556;6.286;2023-02-22T01:00:58;99534.44;;;4.25;77.89
51321;BME280;38732;49.556;6.286;2023-02-22T01:03:26;99539.44;;;4.21;78.92
51321;BME280;38732;49.556;6.286;2023-02-22T01:05:55;99540.41;;;4.24;79.64
51321;BME280;38732;49.556;6.286;2023-02-22T01:08:23;99535.38;;;4.27;77.91
51321;BME280;38732;49.556;6.286;2023-02-22T01:10:51;99531.06;;;4.26;76.98
51321;BME280;38732;49.556;6.286;2023-02-22T01:13:19;99532.69;;;4.23;77.13
51321;BME280;38732;49.556;6.286;2023-02-22T01:15:48;99530.06;;;4.20;75.99
51321;BME280;38732;49.556;6.286;2023-02-22T01:18:16;99525.69;;;4.16;76.97
51321;BME280;38732;49.556;6.286;2023-02-22T01:20:44;99523.81;;;4.10;76.24
51321;BME280;38732;49.556;6.286;2023-02-22T01:23:13;99531.50;;;4.10;77.40
51321;BME280;38732;49.556;6.286;2023-02-22T01:25:41;99527.09;;;4.04;76.99
51321;BME280;38732;49.556;6.286;2023-02-22T01:28:10;99527.16;;;4.07;77.42
51321;BME280;38732;49.556;6.286;2023-02-22T01:30:38;99532.28;;;4.07;77.33
51321;BME280;38732;49.556;6.286;2023-02-22T01:33:06;99524.63;;;4.07;78.00
51321;BME280;38732;49.556;6.286;2023-02-22T01:35:36;99531.38;;;4.05;78.68
51321;BME280;38732;49.556;6.286;2023-02-22T01:38:05;99524.56;;;4.06;78.57
51321;BME280;38732;49.556;6.286;2023-02-22T01:40:40;99526.41;;;4.11;80.43
51321;BME280;38732;49.556;6.286;2023-02-22T01:43:19;99528.03;;;4.08;78.24
51321;BME280;38732;49.556;6.286;2023-02-22T01:46:00;99525.28;;;4.02;77.43
51321;BME280;38732;49.556;6.286;2023-02-22T01:48:38;99522.66;;;3.99;77.46
51321;BME280;38732;49.556;6.286;2023-02-22T01:56:24;99509.81;;;3.96;76.71
51321;BME280;38732;49.556;6.286;2023-02-22T01:58:58;99508.09;;;3.95;77.81
51321;BME280;38732;49.556;6.286;2023-02-22T02:01:28;99510.53;;;3.92;77.75
51321;BME280;38732;49.556;6.286;2023-02-22T02:03:59;99507.09;;;3.89;78.41
51321;BME280;38732;49.556;6.286;2023-02-22T02:06:32;99499.50;;;3.93;78.12
51321;BME280;38732;49.556;6.286;2023-02-22T02:09:09;99504.56;;;3.89;78.69
51321;BME280;38732;49.556;6.286;2023-02-22T02:11:40;99513.09;;;3.92;79.38
51321;BME280;38732;49.556;6.286;2023-02-22T02:14:09;99504.56;;;3.89;78.58
51321;BME280;38732;49.556;6.286;2023-02-22T02:16:45;99503.78;;;3.94;78.68
51321;BME280;38732;49.556;6.286;2023-02-22T02:27:25;99502.09;;;3.94;77.82
51321;BME280;38732;49.556;6.286;2023-02-22T02:33:07;99488.38;;;3.91;79.46
51321;BME280;38732;49.556;6.286;2023-02-22T02:35:47;99493.66;;;3.97;77.71
51321;BME280;38732;49.556;6.286;2023-02-22T02:38:30;99485.91;;;3.94;76.96
51321;BME280;38732;49.556;6.286;2023-02-22T02:41:11;99483.28;;;3.91;77.31
51321;BME280;38732;49.556;6.286;2023-02-22T02:46:34;99485.84;;;3.91;77.93
51321;BME280;38732;49.556;6.286;2023-02-22T02:49:14;99479.81;;;3.88;78.65
51321;BME280;38732;49.556;6.286;2023-02-22T02:51:49;99476.53;;;3.93;78.18
51321;BME280;38732;49.556;6.286;2023-02-22T02:54:20;99464.63;;;3.93;78.13
51321;BME280;38732;49.556;6.286;2023-02-22T02:56:50;99469.47;;;3.84;76.43
51321;BME280;38732;49.556;6.286;2023-02-22T02:59:24;99473.72;;;3.83;75.87
51321;BME280;38732;49.556;6.286;2023-02-22T03:07:54;99465.78;;;3.73;78.50
51321;BME280;38732;49.556;6.286;2023-02-22T03:10:54;99457.28;;;3.74;79.19
51321;BME280;38732;49.556;6.286;2023-02-22T03:13:49;99461.59;;;3.75;78.99
51321;BME280;38732;49.556;6.286;2023-02-22T03:16:41;99459.75;;;3.71;77.87
51321;BME280;38732;49.556;6.286;2023-02-22T03:22:07;99451.75;;;3.58;77.24
51321;BME280;38732;49.556;6.286;2023-02-22T03:24:57;99457.69;;;3.57;78.13
51321;BME280;38732;49.556;6.286;2023-02-22T03:27:36;99455.03;;;3.54;80.05
51321;BME280;38732;49.556;6.286;2023-02-22T03:30:56;99443.13;;;3.53;80.70
51321;BME280;38732;49.556;6.286;2023-02-22T03:33:02;99443.97;;;3.54;80.83
51321;BME280;38732;49.556;6.286;2023-02-22T03:35:34;99449.13;;;3.55;81.04
51321;BME280;38732;49.556;6.286;2023-02-22T03:38:06;99445.72;;;3.55;81.49
51321;BME280;38732;49.556;6.286;2023-02-22T03:40:40;99442.19;;;3.50;80.65
51321;BME280;38732;49.556;6.286;2023-02-22T03:43:14;99430.13;;;3.45;79.94
51321;BME280;38732;49.556;6.286;2023-02-22T03:45:44;99431.97;;;3.50;78.61
51321;BME280;38732;49.556;6.286;2023-02-22T03:48:35;99429.31;;;3.46;79.53
51321;BME280;38732;49.556;6.286;2023-02-22T03:51:05;99427.66;;;3.47;80.20
51321;BME280;38732;49.556;6.286;2023-02-22T03:53:33;99425.97;;;3.49;81.28
51321;BME280;38732;49.556;6.286;2023-02-22T03:56:03;99431.06;;;3.49;81.28
51321;BME280;38732;49.556;6.286;2023-02-22T03:58:35;99426.09;;;3.54;81.17
51321;BME280;38732;49.556;6.286;2023-02-22T04:01:05;99422.19;;;3.66;81.59
51321;BME280;38732;49.556;6.286;2023-02-22T04:03:33;99427.22;;;3.63;81.32
51321;BME280;38732;49.556;6.286;2023-02-22T04:06:01;99431.53;;;3.66;80.64
51321;BME280;38732;49.556;6.286;2023-02-22T04:08:29;99428.97;;;3.64;79.06
51321;BME280;38732;49.556;6.286;2023-02-22T04:10:57;99436.53;;;3.61;78.82
51321;BME280;38732;49.556;6.286;2023-02-22T04:13:26;99429.66;;;3.59;78.88
51321;BME280;38732;49.556;6.286;2023-02-22T04:15:54;99425.50;;;3.62;78.37
51321;BME280;38732;49.556;6.286;2023-02-22T04:18:22;99428.84;;;3.60;78.59
51321;BME280;38732;49.556;6.286;2023-02-22T04:20:51;99427.22;;;3.63;77.70
51321;BME280;38732;49.556;6.286;2023-02-22T04:23:19;99423.63;;;3.57;78.58
51321;BME280;38732;49.556;6.286;2023-02-22T04:25:47;99425.38;;;3.58;77.70
51321;BME280;38732;49.556;6.286;2023-02-22T04:28:15;99426.97;;;3.54;77.50
51321;BME280;38732;49.556;6.286;2023-02-22T04:30:44;99428.53;;;3.49;76.93
51321;BME280;38732;49.556;6.286;2023-02-22T04:33:13;99420.78;;;3.44;77.32
51321;BME280;38732;49.556;6.286;2023-02-22T04:35:41;99427.38;;;3.38;77.52
51321;BME280;38732;49.556;6.286;2023-02-22T04:38:09;99412.88;;;3.37;77.05
51321;BME280;38732;49.556;6.286;2023-02-22T04:40:38;99417.81;;;3.31;77.38
51321;BME280;38732;49.556;6.286;2023-02-22T04:43:06;99410.88;;;3.25;78.23
51321;BME280;38732;49.556;6.286;2023-02-22T04:45:34;99415.13;;;3.26;79.31
51321;BME280;38732;49.556;6.286;2023-02-22T04:48:02;99415.06;;;3.23;78.94
51321;BME280;38732;49.556;6.286;2023-02-22T04:50:31;99417.75;;;3.28;81.32
51321;BME280;38732;49.556;6.286;2023-02-22T04:52:59;99410.09;;;3.29;80.01
51321;BME280;38732;49.556;6.286;2023-02-22T04:55:27;99405.00;;;3.29;79.74
51321;BME280;38732;49.556;6.286;2023-02-22T04:57:56;99407.44;;;3.24;79.53
51321;BME280;38732;49.556;6.286;2023-02-22T05:00:24;99404.16;;;3.29;79.02
51321;BME280;38732;49.556;6.286;2023-02-22T05:02:52;99399.88;;;3.28;79.37
51321;BME280;38732;49.556;6.286;2023-02-22T05:05:21;99405.75;;;3.25;80.24
51321;BME280;38732;49.556;6.286;2023-02-22T05:07:49;99405.06;;;3.31;81.50
51321;BME280;38732;49.556;6.286;2023-02-22T05:10:18;99397.47;;;3.32;81.08
51321;BME280;38732;49.556;6.286;2023-02-22T05:12:46;99394.91;;;3.32;78.40
51321;BME280;38732;49.556;6.286;2023-02-22T05:15:17;99386.28;;;3.29;77.84
51321;BME280;38732;49.556;6.286;2023-02-22T05:17:46;99398.09;;;3.25;77.53
51321;BME280;38732;49.556;6.286;2023-02-22T05:20:20;99398.78;;;3.19;78.42
51321;BME280;38732;49.556;6.286;2023-02-22T05:22:49;99400.25;;;3.11;79.29
51321;BME280;38732;49.556;6.286;2023-02-22T05:25:17;99393.44;;;3.10;80.41
51321;BME280;38732;49.556;6.286;2023-02-22T05:27:53;99395.22;;;3.14;80.24
51321;BME280;38732;49.556;6.286;2023-02-22T05:30:24;99391.03;;;3.16;80.79
51321;BME280;38732;49.556;6.286;2023-02-22T05:32:52;99383.31;;;3.13;81.31
51321;BME280;38732;49.556;6.286;2023-02-22T05:35:21;99390.19;;;3.16;81.84
51321;BME280;38732;49.556;6.286;2023-02-22T05:37:50;99387.50;;;3.11;82.52
51321;BME280;38732;49.556;6.286;2023-02-22T05:40:21;99390.88;;;3.10;82.61
51321;BME280;38732;49.556;6.286;2023-02-22T05:42:50;99385.66;;;3.06;82.39
51321;BME280;38732;49.556;6.286;2023-02-22T05:45:22;99394.13;;;3.05;82.25
51321;BME280;38732;49.556;6.286;2023-02-22T05:47:52;99382.03;;;2.99;82.53
51321;BME280;38732;49.556;6.286;2023-02-22T05:50:21;99388.78;;;2.97;83.58
51321;BME280;38732;49.556;6.286;2023-02-22T05:52:49;99387.06;;;2.96;84.33
51321;BME280;38732;49.556;6.286;2023-02-22T05:55:20;99383.59;;;2.94;83.52
51321;BME280;38732;49.556;6.286;2023-02-22T05:57:50;99379.28;;;2.91;82.81
51321;BME280;38732;49.556;6.286;2023-02-22T06:00:22;99382.50;;;2.86;81.72
51321;BME280;38732;49.556;6.286;2023-02-22T06:02:58;99379.06;;;2.84;82.00
51321;BME280;38732;49.556;6.286;2023-02-22T06:05:27;99372.88;;;2.75;82.26
51321;BME280;38732;49.556;6.286;2023-02-22T06:07:56;99372.00;;;2.75;82.91
51321;BME280;38732;49.556;6.286;2023-02-22T06:10:25;99375.41;;;2.75;82.40
51321;BME280;38732;49.556;6.286;2023-02-22T06:12:54;99370.19;;;2.71;82.31
51321;BME280;38732;49.556;6.286;2023-02-22T06:15:24;99370.97;;;2.68;83.49
51321;BME280;38732;49.556;6.286;2023-02-22T06:17:54;99374.38;;;2.69;83.82
51321;BME280;38732;49.556;6.286;2023-02-22T06:20:23;99365.84;;;2.68;83.96
51321;BME280;38732;49.556;6.286;2023-02-22T06:22:54;99364.25;;;2.72;83.10
51321;BME280;38732;49.556;6.286;2023-02-22T06:25:26;99364.38;;;2.76;83.52
51321;BME280;38732;49.556;6.286;2023-02-22T06:27:55;99360.91;;;2.73;82.80
51321;BME280;38732;49.556;6.286;2023-02-22T06:30:24;99360.03;;;2.72;81.44
51321;BME280;38732;49.556;6.286;2023-02-22T06:32:52;99363.31;;;2.68;81.38
51321;BME280;38732;49.556;6.286;2023-02-22T06:35:21;99364.94;;;2.66;80.55
51321;BME280;38732;49.556;6.286;2023-02-22T06:37:49;99373.22;;;2.59;80.71
51321;BME280;38732;49.556;6.286;2023-02-22T06:40:18;99367.31;;;2.60;81.57
51321;BME280;38732;49.556;6.286;2023-02-22T06:42:47;99374.19;;;2.63;82.03
51321;BME280;38732;49.556;6.286;2023-02-22T06:45:16;99371.72;;;2.66;82.02
51321;BME280;38732;49.556;6.286;2023-02-22T06:47:44;99372.72;;;2.71;81.15
51321;BME280;38732;49.556;6.286;2023-02-22T06:52:49;99373.56;;;2.70;80.65
51321;BME280;38732;49.556;6.286;2023-02-22T06:55:25;99381.25;;;2.71;80.80
51321;BME280;38732;49.556;6.286;2023-02-22T06:57:54;99383.09;;;2.77;80.31
51321;BME280;38732;49.556;6.286;2023-02-22T07:00:24;99389.94;;;2.78;79.85
51321;BME280;38732;49.556;6.286;2023-02-22T07:02:53;99389.03;;;2.76;80.23
51321;BME280;38732;49.556;6.286;2023-02-22T07:05:22;99391.66;;;2.79;80.58
51321;BME280;38732;49.556;6.286;2023-02-22T07:07:53;99399.38;;;2.80;81.20
51321;BME280;38732;49.556;6.286;2023-02-22T07:10:27;99396.09;;;2.85;82.12
51321;BME280;38732;49.556;6.286;2023-02-22T07:12:56;99399.88;;;2.97;82.99
51321;BME280;38732;49.556;6.286;2023-02-22T07:15:25;99396.72;;;3.06;82.56
51321;BME280;38732;49.556;6.286;2023-02-22T07:17:54;99395.22;;;3.13;81.65
51321;BME280;38732;49.556;6.286;2023-02-22T07:20:24;99395.41;;;3.20;80.27
51321;BME280;38732;49.556;6.286;2023-02-22T07:22:53;99397.19;;;3.23;80.17
51321;BME280;38732;49.556;6.286;2023-02-22T07:25:22;99400.69;;;3.27;79.67
51321;BME280;38732;49.556;6.286;2023-02-22T07:27:51;99405.06;;;3.31;79.52
51321;BME280;38732;49.556;6.286;2023-02-22T07:30:25;99405.75;;;3.25;79.84
51321;BME280;38732;49.556;6.286;2023-02-22T07:32:54;99399.88;;;3.28;79.90
51321;BME280;38732;49.556;6.286;2023-02-22T07:35:25;99400.78;;;3.30;80.85
51321;BME280;38732;49.556;6.286;2023-02-22T07:37:54;99406.84;;;3.33;80.68
51321;BME280;38732;49.556;6.286;2023-02-22T07:40:24;99401.81;;;3.36;81.03
51321;BME280;38732;49.556;6.286;2023-02-22T07:42:59;99399.31;;;3.39;81.41
51321;BME280;38732;49.556;6.286;2023-02-22T07:45:33;99405.31;;;3.40;81.17
51321;BME280;38732;49.556;6.286;2023-02-22T07:48:04;99399.50;;;3.45;81.65
51321;BME280;38732;49.556;6.286;2023-02-22T07:50:34;99407.38;;;3.53;83.34
51321;BME280;38732;49.556;6.286;2023-02-22T07:53:04;99399.00;;;3.57;81.64
51321;BME280;38732;49.556;6.286;2023-02-22T07:55:33;99402.47;;;3.61;81.59
51321;BME280;38732;49.556;6.286;2023-02-22T07:58:04;99405.09;;;3.62;82.24
51321;BME280;38732;49.556;6.286;2023-02-22T08:00:38;99399.41;;;3.74;80.49
51321;BME280;38732;49.556;6.286;2023-02-22T08:03:10;99396.84;;;3.74;81.49
51321;BME280;38732;49.556;6.286;2023-02-22T08:05:40;99400.44;;;3.81;81.64
51321;BME280;38732;49.556;6.286;2023-02-22T08:08:09;99403.19;;;3.87;82.27
51321;BME280;38732;49.556;6.286;2023-02-22T08:10:37;99401.78;;;4.00;83.34
51321;BME280;38732;49.556;6.286;2023-02-22T08:13:06;99389.22;;;4.07;84.19
51321;BME280;38732;49.556;6.286;2023-02-22T08:15:36;99389.47;;;4.18;84.48
51321;BME280;38732;49.556;6.286;2023-02-22T08:18:10;99396.63;;;4.33;83.61
51321;BME280;38732;49.556;6.286;2023-02-22T08:20:40;99397.66;;;4.40;83.34
51321;BME280;38732;49.556;6.286;2023-02-22T08:23:11;99402.09;;;4.47;82.96
51321;BME280;38732;49.556;6.286;2023-02-22T08:25:39;99398.03;;;4.57;82.54
51321;BME280;38732;49.556;6.286;2023-02-22T08:28:10;99396.53;;;4.65;81.96
51321;BME280;38732;49.556;6.286;2023-02-22T08:30:40;99393.19;;;4.69;81.57
51321;BME280;38732;49.556;6.286;2023-02-22T08:33:10;99387.44;;;4.79;81.36
51321;BME280;38732;49.556;6.286;2023-02-22T08:35:39;99384.16;;;4.85;82.11
51321;BME280;38732;49.556;6.286;2023-02-22T08:38:15;99388.53;;;4.90;83.35
51321;BME280;38732;49.556;6.286;2023-02-22T08:40:44;99376.00;;;5.03;84.15
51321;BME280;38732;49.556;6.286;2023-02-22T08:43:12;99371.09;;;5.13;84.10
51321;BME280;38732;49.556;6.286;2023-02-22T08:45:40;99372.13;;;5.22;85.20
51321;BME280;38732;49.556;6.286;2023-02-22T08:48:10;99374.09;;;5.35;85.36
51321;BME280;38732;49.556;6.286;2023-02-22T08:50:39;99359.78;;;5.46;85.44
51321;BME280;38732;49.556;6.286;2023-02-22T08:53:08;99371.88;;;5.53;85.24
51321;BME280;38732;49.556;6.286;2023-02-22T08:55:38;99365.28;;;5.66;86.21
51321;BME280;38732;49.556;6.286;2023-02-22T08:58:07;99359.47;;;5.76;84.99
51321;BME280;38732;49.556;6.286;2023-02-22T09:00:37;99357.16;;;5.90;85.36
51321;BME280;38732;49.556;6.286;2023-02-22T09:03:09;99351.44;;;6.03;85.66
51321;BME280;38732;49.556;6.286;2023-02-22T09:05:37;99349.88;;;6.13;86.32
51321;BME280;38732;49.556;6.286;2023-02-22T09:08:06;99351.00;;;6.31;86.22
51321;BME280;38732;49.556;6.286;2023-02-22T09:10:34;99352.91;;;6.44;85.29
51321;BME280;38732;49.556;6.286;2023-02-22T09:13:03;99345.34;;;6.53;85.34
51321;BME280;38732;49.556;6.286;2023-02-22T09:15:32;99333.63;;;6.69;84.35
51321;BME280;38732;49.556;6.286;2023-02-22T09:18:02;99339.72;;;6.77;83.87
51321;BME280;38732;49.556;6.286;2023-02-22T09:20:30;99343.28;;;6.90;84.19
51321;BME280;38732;49.556;6.286;2023-02-22T09:22:58;99342.53;;;6.97;83.88
51321;BME280;38732;49.556;6.286;2023-02-22T09:25:28;99336.75;;;7.15;84.01
51321;BME280;38732;49.556;6.286;2023-02-22T09:27:56;99346.31;;;7.28;83.29
51321;BME280;38732;49.556;6.286;2023-02-22T09:30:25;99341.25;;;7.34;83.24
51321;BME280;38732;49.556;6.286;2023-02-22T09:32:58;99341.44;;;7.53;82.46
51321;BME280;38732;49.556;6.286;2023-02-22T09:35:27;99338.97;;;7.65;82.01
51321;BME280;38732;49.556;6.286;2023-02-22T09:37:56;99334.81;;;7.76;81.77
51321;BME280;38732;49.556;6.286;2023-02-22T09:40:28;99330.66;;;7.89;81.52
51321;BME280;38732;49.556;6.286;2023-02-22T09:43:29;99332.47;;;8.03;81.24
51321;BME280;38732;49.556;6.286;2023-02-22T09:51:49;99335.34;;;8.42;82.04
51321;BME280;38732;49.556;6.286;2023-02-22T09:54:27;99327.72;;;8.61;81.91
51321;BME280;38732;49.556;6.286;2023-02-22T09:57:00;99331.25;;;8.78;81.20
51321;BME280;38732;49.556;6.286;2023-02-22T09:59:36;99322.75;;;8.92;79.92
51321;BME280;38732;49.556;6.286;2023-02-22T10:02:28;99315.94;;;9.04;80.54
51321;BME280;38732;49.556;6.286;2023-02-22T10:05:12;99316.84;;;9.14;80.52
51321;BME280;38732;49.556;6.286;2023-02-22T10:07:52;99316.03;;;9.32;80.02
51321;BME280;38732;49.556;6.286;2023-02-22T10:10:22;99317.78;;;9.53;81.40
51321;BME280;38732;49.556;6.286;2023-02-22T10:13:15;99315.22;;;9.75;80.91
51321;BME280;38732;49.556;6.286;2023-02-22T10:15:58;99322.13;;;9.91;79.96
51321;BME280;38732;49.556;6.286;2023-02-22T10:21:34;99313.50;;;10.44;78.91
51321;BME280;38732;49.556;6.286;2023-02-22T10:26:45;99303.91;;;10.85;76.73
51321;BME280;38732;49.556;6.286;2023-02-22T10:29:32;99298.69;;;11.01;75.44
51321;BME280;38732;49.556;6.286;2023-02-22T10:32:05;99299.41;;;11.27;74.91
51321;BME280;38732;49.556;6.286;2023-02-22T10:34:45;99302.78;;;11.41;73.18
51321;BME280;38732;49.556;6.286;2023-02-22T10:37:29;99300.94;;;11.61;73.85
51321;BME280;38732;49.556;6.286;2023-02-22T10:40:11;99302.66;;;11.59;73.15
51321;BME280;38732;49.556;6.286;2023-02-22T10:42:39;99292.13;;;11.87;73.10
51321;BME280;38732;49.556;6.286;2023-02-22T10:45:19;99284.13;;;12.15;71.51
51321;BME280;38732;49.556;6.286;2023-02-22T10:47:49;99314.53;;;11.90;73.56
51321;BME280;38732;49.556;6.286;2023-02-22T10:50:18;99311.09;;;11.86;73.04
51321;BME280;38732;49.556;6.286;2023-02-22T10:52:48;99307.03;;;12.55;71.14
51321;BME280;38732;49.556;6.286;2023-02-22T10:55:16;99306.19;;;12.54;70.46
51321;BME280;38732;49.556;6.286;2023-02-22T10:57:47;99320.69;;;11.73;74.47
51321;BME280;38732;49.556;6.286;2023-02-22T11:00:37;99329.00;;;10.24;84.53
51321;BME280;38732;49.556;6.286;2023-02-22T11:03:17;99316.75;;;11.09;81.17
51321;BME280;38732;49.556;6.286;2023-02-22T11:05:46;99312.25;;;11.43;78.65
51321;BME280;38732;49.556;6.286;2023-02-22T11:11:20;99308.59;;;11.72;78.08
51321;BME280;38732;49.556;6.286;2023-02-22T11:13:55;99303.94;;;12.98;72.85
51321;BME280;38732;49.556;6.286;2023-02-22T11:16:31;99317.56;;;12.41;73.96
51321;BME280;38732;49.556;6.286;2023-02-22T11:19:11;99312.75;;;12.84;72.60
51321;BME280;38732;49.556;6.286;2023-02-22T11:21:43;99309.13;;;12.99;72.63
51321;BME280;38732;49.556;6.286;2023-02-22T11:24:13;99304.09;;;13.53;69.49
51321;BME280;38732;49.556;6.286;2023-02-22T11:26:48;99302.13;;;13.69;68.02
51321;BME280;38732;49.556;6.286;2023-02-22T11:29:20;99300.50;;;13.62;66.53
51321;BME280;38732;49.556;6.286;2023-02-22T11:31:50;99300.69;;;12.82;72.58
51321;BME280;38732;49.556;6.286;2023-02-22T11:37:17;99305.94;;;12.77;71.07
51321;BME280;38732;49.556;6.286;2023-02-22T11:39:45;99295.13;;;13.74;68.76
51321;BME280;38732;49.556;6.286;2023-02-22T11:42:21;99290.88;;;14.21;66.05
51321;BME280;38732;49.556;6.286;2023-02-22T11:45:17;99291.56;;;14.33;66.66
51321;BME280;38732;49.556;6.286;2023-02-22T11:48:00;99289.47;;;14.53;65.33
51321;BME280;38732;49.556;6.286;2023-02-22T11:50:30;99277.97;;;14.65;63.45
51321;BME280;38732;49.556;6.286;2023-02-22T11:53:31;99271.78;;;14.72;62.71
51321;BME280;38732;49.556;6.286;2023-02-22T11:56:32;99274.78;;;14.94;62.38
51321;BME280;38732;49.556;6.286;2023-02-22T11:59:14;99271.53;;;15.25;61.99
51321;BME280;38732;49.556;6.286;2023-02-22T12:01:55;99268.66;;;15.37;60.70
51321;BME280;38732;49.556;6.286;2023-02-22T12:07:48;99262.94;;;15.60;59.77
51321;BME280;38732;49.556;6.286;2023-02-22T12:10:32;99262.00;;;15.25;61.81
51321;BME280;38732;49.556;6.286;2023-02-22T12:16:17;99269.28;;;15.86;60.15
51321;BME280;38732;49.556;6.286;2023-02-22T12:19:04;99260.16;;;16.36;59.39
51321;BME280;38732;49.556;6.286;2023-02-22T12:21:38;99262.47;;;16.80;56.85
51321;BME280;38732;49.556;6.286;2023-02-22T12:24:17;99254.88;;;17.30;55.01
51321;BME280;38732;49.556;6.286;2023-02-22T12:26:50;99251.81;;;17.17;56.76
51321;BME280;38732;49.556;6.286;2023-02-22T12:29:24;99251.38;;;18.13;52.76
51321;BME280;38732;49.556;6.286;2023-02-22T12:32:02;99244.56;;;18.32;52.16
51321;BME280;38732;49.556;6.286;2023-02-22T12:34:52;99248.00;;;18.09;54.16
51321;BME280;38732;49.556;6.286;2023-02-22T12:37:34;99243.63;;;18.83;51.55
51321;BME280;38732;49.556;6.286;2023-02-22T12:40:13;99238.81;;;19.62;48.58
51321;BME280;38732;49.556;6.286;2023-02-22T12:43:09;99235.31;;;19.61;49.62
51321;BME280;38732;49.556;6.286;2023-02-22T12:45:50;99235.47;;;19.80;48.52
51321;BME280;38732;49.556;6.286;2023-02-22T12:48:34;99235.84;;;18.08;52.24
51321;BME280;38732;49.556;6.286;2023-02-22T12:51:32;99235.84;;;17.27;52.20
51321;BME280;38732;49.556;6.286;2023-02-22T12:56:41;99236.06;;;16.91;57.00
51321;BME280;38732;49.556;6.286;2023-02-22T12:59:33;99236.03;;;17.20;55.29
51321;BME280;38732;49.556;6.286;2023-02-22T13:02:17;99242.72;;;17.29;55.48
51321;BME280;38732;49.556;6.286;2023-02-22T13:04:47;99232.88;;;16.81;57.79
51321;BME280;38732;49.556;6.286;2023-02-22T13:07:32;99235.06;;;16.65;58.33
51321;BME280;38732;49.556;6.286;2023-02-22T13:13:03;99240.34;;;14.84;69.30
51321;BME280;38732;49.556;6.286;2023-02-22T13:18:17;99234.53;;;15.49;68.97
51321;BME280;38732;49.556;6.286;2023-02-22T13:21:00;99233.78;;;15.46;69.30
51321;BME280;38732;49.556;6.286;2023-02-22T13:26:23;99226.56;;;14.81;72.03
51321;BME280;38732;49.556;6.286;2023-02-22T13:31:53;99228.97;;;15.29;69.40
51321;BME280;38732;49.556;6.286;2023-02-22T13:34:36;99226.63;;;15.18;70.12
51321;BME280;38732;49.556;6.286;2023-02-22T13:40:14;99218.78;;;14.79;72.12
51321;BME280;38732;49.556;6.286;2023-02-22T13:51:50;99222.34;;;15.89;64.97
51321;BME280;38732;49.556;6.286;2023-02-22T13:54:21;99223.53;;;15.76;65.34
51321;BME280;38732;49.556;6.286;2023-02-22T13:56:52;99222.50;;;15.83;65.35
51321;BME280;38732;49.556;6.286;2023-02-22T13:59:32;99222.44;;;15.84;66.42
51321;BME280;38732;49.556;6.286;2023-02-22T14:02:02;99218.03;;;15.88;65.78
51321;BME280;38732;49.556;6.286;2023-02-22T14:04:38;99224.75;;;15.96;66.05
51321;BME280;38732;49.556;6.286;2023-02-22T14:09:52;99221.72;;;15.42;69.19
51321;BME280;38732;49.556;6.286;2023-02-22T14:17:48;99212.81;;;15.15;75.35
51321;BME280;38732;49.556;6.286;2023-02-22T14:20:20;99218.47;;;14.53;79.89
51321;BME280;38732;49.556;6.286;2023-02-22T14:22:49;99226.22;;;13.58;84.54
51321;BME280;38732;49.556;6.286;2023-02-22T14:25:35;99220.78;;;14.21;81.68
51321;BME280;38732;49.556;6.286;2023-02-22T14:28:30;99216.06;;;13.43;87.92
51321;BME280;38732;49.556;6.286;2023-02-22T14:31:10;99223.16;;;13.33;90.94
51321;BME280;38732;49.556;6.286;2023-02-22T14:36:42;99222.28;;;13.32;92.85
51321;BME280;38732;49.556;6.286;2023-02-22T14:41:55;99232.91;;;13.12;91.46
51321;BME280;38732;49.556;6.286;2023-02-22T14:44:29;99229.72;;;13.54;90.95
51321;BME280;38732;49.556;6.286;2023-02-22T14:47:02;99245.34;;;12.87;97.97
51321;BME280;38732;49.556;6.286;2023-02-22T14:49:36;99233.69;;;13.75;89.14
51321;BME280;38732;49.556;6.286;2023-02-22T14:52:18;99231.72;;;13.36;91.94
51321;BME280;38732;49.556;6.286;2023-02-22T15:00:40;99229.47;;;13.12;96.01
51321;BME280;38732;49.556;6.286;2023-02-22T15:03:18;99237.19;;;13.15;91.98
51321;BME280;38732;49.556;6.286;2023-02-22T15:05:46;99232.63;;;13.35;93.46
51321;BME280;38732;49.556;6.286;2023-02-22T15:08:17;99234.38;;;13.33;94.28
51321;BME280;38732;49.556;6.286;2023-02-22T15:10:47;99236.91;;;13.36;95.14
51321;BME280;38732;49.556;6.286;2023-02-22T15:13:25;99228.81;;;12.96;97.15
51321;BME280;38732;49.556;6.286;2023-02-22T15:15:57;99238.72;;;12.65;100.00
51321;BME280;38732;49.556;6.286;2023-02-22T15:18:30;99237.25;;;13.71;91.36